createdAt,value
2024-05-09T00:00:04.907Z,0.00
2024-05-09T00:00:39.074Z,0.00
2024-05-09T00:01:03.256Z,0.00
2024-05-09T00:01:33.245Z,0.00
2024-05-09T00:02:33.192Z,0.00
2024-05-09T00:03:03.175Z,0.00
2024-05-09T00:05:33.306Z,0.00
2024-05-09T00:06:03.374Z,0.00
2024-05-09T00:06:33.127Z,0.00
2024-05-09T00:07:03.122Z,0.00
2024-05-09T00:08:03.156Z,0.00
2024-05-09T00:08:33.244Z,0.00
2024-05-09T00:10:37.024Z,0.00
2024-05-09T00:11:03.172Z,0.00
2024-05-09T00:12:33.062Z,0.00
2024-05-09T00:13:03.059Z,0.00
2024-05-09T00:13:33.040Z,0.00
2024-05-09T00:15:03.032Z,0.00
2024-05-09T00:16:33.020Z,0.00
2024-05-09T00:17:03.038Z,0.00
2024-05-09T00:17:33.213Z,0.00
2024-05-09T00:18:03.526Z,0.00
2024-05-09T00:19:03.056Z,0.00
2024-05-09T00:19:33.032Z,0.00
2024-05-09T00:21:32.963Z,0.00
2024-05-09T00:22:32.976Z,0.00
2024-05-09T00:23:33.148Z,0.00
2024-05-09T00:24:02.927Z,0.00
2024-05-09T00:24:32.916Z,0.00
2024-05-09T00:26:02.972Z,0.00
2024-05-09T00:27:02.897Z,0.00
2024-05-09T00:28:02.927Z,0.00
2024-05-09T00:29:02.939Z,0.00
2024-05-09T00:29:32.977Z,0.00
2024-05-09T00:30:04.191Z,0.00
2024-05-09T00:30:35.557Z,0.00
2024-05-09T00:32:32.977Z,0.00
2024-05-09T00:33:32.918Z,0.00
2024-05-09T00:34:32.841Z,0.00
2024-05-09T00:35:02.871Z,0.00
2024-05-09T00:36:32.812Z,0.00
2024-05-09T00:37:02.784Z,0.00
2024-05-09T00:38:02.897Z,0.00
2024-05-09T00:39:02.772Z,0.00
2024-05-09T00:40:02.827Z,0.00
2024-05-09T00:40:38.737Z,0.00
2024-05-09T00:42:02.727Z,0.00
2024-05-09T00:42:32.719Z,0.00
2024-05-09T00:43:32.729Z,0.00
2024-05-09T00:44:32.749Z,0.00
2024-05-09T00:45:32.694Z,0.00
2024-05-09T00:46:02.685Z,0.00
2024-05-09T00:48:02.991Z,0.00
2024-05-09T00:49:02.757Z,0.00
2024-05-09T00:49:32.718Z,0.00
2024-05-09T00:50:04.187Z,0.00
2024-05-09T00:51:02.630Z,0.00
2024-05-09T00:51:32.625Z,0.00
2024-05-09T00:53:32.737Z,0.00
2024-05-09T00:54:32.586Z,0.00
2024-05-09T00:55:32.577Z,0.00
2024-05-09T00:56:02.636Z,0.00
2024-05-09T00:56:32.599Z,0.00
2024-05-09T00:58:02.549Z,0.00
2024-05-09T00:59:02.550Z,0.00
2024-05-09T01:00:03.616Z,0.00
2024-05-09T01:01:02.527Z,0.00
2024-05-09T01:02:32.656Z,0.00
2024-05-09T01:03:02.795Z,0.00
2024-05-09T01:03:32.780Z,0.00
2024-05-09T01:04:32.507Z,0.00
2024-05-09T01:06:32.444Z,0.00
2024-05-09T01:07:32.430Z,0.00
2024-05-09T01:08:02.708Z,0.00
2024-05-09T01:08:32.548Z,0.00
2024-05-09T01:09:02.419Z,0.00
2024-05-09T01:09:32.432Z,0.00
2024-05-09T01:10:02.507Z,0.00
2024-05-09T01:10:35.036Z,0.00
2024-05-09T01:12:02.581Z,0.00
2024-05-09T01:13:32.360Z,0.00
2024-05-09T01:14:02.381Z,0.00
2024-05-09T01:14:32.462Z,0.00
2024-05-09T01:15:32.380Z,0.00
2024-05-09T01:17:32.524Z,0.00
2024-05-09T01:18:02.677Z,0.00
2024-05-09T01:19:02.407Z,0.00
2024-05-09T01:19:32.396Z,0.00
2024-05-09T01:20:02.634Z,0.00
2024-05-09T01:21:02.379Z,0.00
2024-05-09T01:22:02.283Z,0.00
2024-05-09T01:23:32.459Z,0.00
2024-05-09T01:24:02.253Z,0.00
2024-05-09T01:24:32.244Z,0.00
2024-05-09T01:26:32.286Z,0.00
2024-05-09T01:28:02.340Z,0.00
2024-05-09T01:28:32.197Z,0.00
2024-05-09T01:29:02.233Z,0.00
2024-05-09T01:29:32.241Z,0.00
2024-05-09T01:30:04.024Z,0.00
2024-05-09T01:30:35.521Z,0.00
2024-05-09T01:33:02.389Z,0.00
2024-05-09T01:33:32.557Z,0.00
2024-05-09T01:34:32.140Z,0.00
2024-05-09T01:35:02.192Z,0.00
2024-05-09T01:35:32.214Z,0.00
2024-05-09T01:36:02.113Z,0.00
2024-05-09T01:37:02.151Z,0.00
2024-05-09T01:38:32.296Z,0.00
2024-05-09T01:39:02.079Z,0.00
2024-05-09T01:40:02.085Z,0.00
2024-05-09T01:41:02.105Z,0.00
2024-05-09T01:41:32.062Z,0.00
2024-05-09T01:42:32.046Z,0.00
2024-05-09T01:44:02.084Z,0.00
2024-05-09T01:44:32.045Z,0.00
2024-05-09T01:45:32.012Z,0.00
2024-05-09T01:46:31.998Z,0.00
2024-05-09T01:47:02.044Z,0.00
2024-05-09T01:47:32.164Z,0.00
2024-05-09T01:48:02.766Z,0.00
2024-05-09T01:50:02.049Z,0.00
2024-05-09T01:52:01.957Z,0.00
2024-05-09T01:52:31.933Z,0.00
2024-05-09T01:53:01.990Z,0.00
2024-05-09T01:53:31.959Z,0.00
2024-05-09T01:56:32.010Z,0.00
2024-05-09T01:57:01.873Z,0.00
2024-05-09T01:57:31.912Z,0.00
2024-05-09T01:58:31.871Z,0.00
2024-05-09T01:59:01.992Z,0.00
2024-05-09T02:00:01.842Z,0.00
2024-05-09T02:02:02.011Z,0.00
2024-05-09T02:02:31.879Z,0.00
2024-05-09T02:03:02.115Z,0.00
2024-05-09T02:04:31.916Z,0.00
2024-05-09T02:05:31.876Z,0.00
2024-05-09T02:06:31.773Z,0.00
2024-05-09T02:07:31.761Z,0.00
2024-05-09T02:08:01.873Z,0.00
2024-05-09T02:08:31.966Z,0.00
2024-05-09T02:10:02.043Z,0.00
2024-05-09T02:11:01.947Z,0.00
2024-05-09T02:12:01.957Z,0.00
2024-05-09T02:13:01.726Z,0.00
2024-05-09T02:13:31.696Z,0.00
2024-05-09T02:14:01.771Z,0.00
2024-05-09T02:15:01.682Z,0.00
2024-05-09T02:15:31.671Z,0.00
2024-05-09T02:16:31.668Z,0.00
2024-05-09T02:18:31.810Z,0.00
2024-05-09T02:19:01.809Z,0.00
2024-05-09T02:19:31.670Z,0.00
2024-05-09T02:20:36.128Z,0.00
2024-05-09T02:21:01.759Z,0.00
2024-05-09T02:22:01.610Z,0.00
2024-05-09T02:24:01.576Z,0.00
2024-05-09T02:25:01.573Z,0.00
2024-05-09T02:25:31.597Z,0.00
2024-05-09T02:26:01.639Z,0.00
2024-05-09T02:26:31.606Z,0.00
2024-05-09T02:28:31.527Z,0.00
2024-05-09T02:29:31.599Z,0.00
2024-05-09T02:30:39.135Z,0.00
2024-05-09T02:31:01.510Z,0.00
2024-05-09T02:32:01.593Z,0.00
2024-05-09T02:32:31.751Z,0.00
2024-05-09T02:34:01.900Z,0.00
2024-05-09T02:35:01.518Z,0.00
2024-05-09T02:36:01.444Z,0.00
2024-05-09T02:36:31.722Z,0.00
2024-05-09T02:37:31.428Z,0.00
2024-05-09T02:38:01.490Z,0.00
2024-05-09T02:39:31.404Z,0.00
2024-05-09T02:40:37.617Z,0.00
2024-05-09T02:41:31.522Z,0.00
2024-05-09T02:42:01.386Z,0.00
2024-05-09T02:44:01.393Z,0.00
2024-05-09T02:44:31.413Z,0.00
2024-05-09T02:45:01.360Z,0.00
2024-05-09T02:46:01.331Z,0.00
2024-05-09T02:47:01.380Z,0.00
2024-05-09T02:47:31.452Z,0.00
2024-05-09T02:49:31.396Z,0.00
2024-05-09T02:50:01.362Z,0.00
2024-05-09T02:50:37.839Z,0.00
2024-05-09T02:51:31.375Z,0.00
2024-05-09T02:52:31.276Z,0.00
2024-05-09T02:54:01.241Z,0.00
2024-05-09T02:55:01.251Z,0.00
2024-05-09T02:55:31.334Z,0.00
2024-05-09T02:56:01.268Z,0.00
2024-05-09T02:57:01.210Z,0.00
2024-05-09T02:58:01.235Z,0.00
2024-05-09T02:59:31.279Z,0.00
2024-05-09T03:00:38.216Z,0.00
2024-05-09T03:01:31.206Z,0.00
2024-05-09T03:02:01.299Z,0.00
2024-05-09T03:02:31.216Z,0.00
2024-05-09T03:04:31.332Z,0.00
2024-05-09T03:05:01.199Z,0.00
2024-05-09T03:06:01.146Z,0.00
2024-05-09T03:07:01.104Z,0.00
2024-05-09T03:07:31.102Z,0.00
2024-05-09T03:09:01.079Z,0.00
2024-05-09T03:10:01.084Z,0.00
2024-05-09T03:10:35.976Z,0.00
2024-05-09T03:11:31.143Z,0.00
2024-05-09T03:12:31.042Z,0.00
2024-05-09T03:14:01.104Z,0.00
2024-05-09T03:14:31.094Z,0.00
2024-05-09T03:15:30.992Z,0.00
2024-05-09T03:16:01.002Z,0.00
2024-05-09T03:17:01.043Z,0.00
2024-05-09T03:19:01.080Z,0.00
2024-05-09T03:19:31.247Z,0.00
2024-05-09T03:20:00.984Z,0.00
2024-05-09T03:21:01.111Z,0.00
2024-05-09T03:21:30.937Z,0.00
2024-05-09T03:22:30.926Z,0.00
2024-05-09T03:24:30.922Z,0.00
2024-05-09T03:25:00.896Z,0.00
2024-05-09T03:25:30.903Z,0.00
2024-05-09T03:27:00.907Z,0.00
2024-05-09T03:27:30.881Z,0.00
2024-05-09T03:28:00.865Z,0.00
2024-05-09T03:30:00.848Z,0.00
2024-05-09T03:30:39.627Z,0.00
2024-05-09T03:31:00.825Z,0.00
2024-05-09T03:32:00.992Z,0.00
2024-05-09T03:32:31.016Z,0.00
2024-05-09T03:34:00.932Z,0.00
2024-05-09T03:34:30.905Z,0.00
2024-05-09T03:35:30.943Z,0.00
2024-05-09T03:36:00.773Z,0.00
2024-05-09T03:37:00.787Z,0.00
2024-05-09T03:37:30.781Z,0.00
2024-05-09T03:38:00.796Z,0.00
2024-05-09T03:38:30.949Z,0.00
2024-05-09T03:39:30.736Z,0.00
2024-05-09T03:40:00.783Z,0.00
2024-05-09T03:42:00.704Z,0.00
2024-05-09T03:42:30.711Z,0.00
2024-05-09T03:43:30.681Z,0.00
2024-05-09T03:44:00.770Z,0.00
2024-05-09T03:45:00.675Z,1.00
2024-05-09T03:47:30.746Z,1.00
2024-05-09T03:48:00.758Z,1.00
2024-05-09T03:48:30.676Z,1.00
2024-05-09T03:49:00.750Z,1.00
2024-05-09T03:49:30.664Z,1.00
2024-05-09T03:50:35.263Z,1.00
2024-05-09T03:51:30.553Z,2.00
2024-05-09T03:53:00.993Z,2.00
2024-05-09T03:53:30.557Z,2.00
2024-05-09T03:54:00.522Z,2.00
2024-05-09T03:54:30.506Z,2.00
2024-05-09T03:55:00.516Z,3.00
2024-05-09T03:57:00.481Z,2.00
2024-05-09T03:58:30.459Z,3.00
2024-05-09T03:59:00.521Z,3.00
2024-05-09T03:59:30.501Z,3.00
2024-05-09T04:00:00.446Z,3.00
2024-05-09T04:00:36.946Z,3.00
2024-05-09T04:01:00.484Z,3.00
2024-05-09T04:02:30.531Z,5.00
2024-05-09T04:04:00.462Z,3.00
2024-05-09T04:05:00.487Z,5.00
2024-05-09T04:05:30.566Z,5.00
2024-05-09T04:06:00.382Z,5.00
2024-05-09T04:06:30.371Z,5.00
2024-05-09T04:07:30.371Z,6.00
2024-05-09T04:08:00.430Z,6.00
2024-05-09T04:09:30.351Z,6.00
2024-05-09T04:10:33.708Z,6.00
2024-05-09T04:11:30.431Z,7.00
2024-05-09T04:12:00.424Z,7.00
2024-05-09T04:13:00.331Z,7.00
2024-05-09T04:14:30.346Z,9.00
2024-05-09T04:15:00.277Z,9.00
2024-05-09T04:16:00.276Z,9.00
2024-05-09T04:17:30.440Z,10.00
2024-05-09T04:18:01.282Z,9.00
2024-05-09T04:18:30.354Z,9.00
2024-05-09T04:19:00.366Z,9.00
2024-05-09T04:20:37.635Z,10.00
2024-05-09T04:21:00.244Z,10.00
2024-05-09T04:21:30.209Z,11.00
2024-05-09T04:22:30.279Z,10.00
2024-05-09T04:23:00.199Z,10.00
2024-05-09T04:24:00.170Z,11.00
2024-05-09T04:24:30.175Z,11.00
2024-05-09T04:26:00.162Z,13.00
2024-05-09T04:27:30.387Z,13.00
2024-05-09T04:28:00.147Z,13.00
2024-05-09T04:28:30.127Z,13.00
2024-05-09T04:29:30.175Z,14.00
2024-05-09T04:31:00.100Z,14.00
2024-05-09T04:31:30.093Z,15.00
2024-05-09T04:33:00.172Z,15.00
2024-05-09T04:33:30.722Z,15.00
2024-05-09T04:34:00.213Z,15.00
2024-05-09T04:36:00.039Z,16.00
2024-05-09T04:37:00.032Z,17.00
2024-05-09T04:37:30.024Z,18.00
2024-05-09T04:38:30.072Z,19.00
2024-05-09T04:39:00.009Z,19.00
2024-05-09T04:39:30.009Z,20.00
2024-05-09T04:41:30.075Z,20.00
2024-05-09T04:42:29.977Z,23.00
2024-05-09T04:42:59.973Z,23.00
2024-05-09T04:44:00.015Z,24.00
2024-05-09T04:44:30.023Z,25.00
2024-05-09T04:45:59.930Z,26.00
2024-05-09T04:46:59.950Z,27.00
2024-05-09T04:48:00.399Z,28.00
2024-05-09T04:48:30.078Z,28.00
2024-05-09T04:49:30.016Z,29.00
2024-05-09T04:49:59.967Z,29.00
2024-05-09T04:51:29.873Z,31.00
2024-05-09T04:52:29.860Z,32.00
2024-05-09T04:53:29.860Z,32.00
2024-05-09T04:53:59.843Z,33.00
2024-05-09T04:54:59.829Z,34.00
2024-05-09T04:56:29.887Z,35.00
2024-05-09T04:56:59.808Z,35.00
2024-05-09T04:57:59.850Z,35.00
2024-05-09T04:59:29.881Z,36.00
2024-05-09T04:59:59.770Z,36.00
2024-05-09T05:00:35.940Z,36.00
2024-05-09T05:02:29.873Z,36.00
2024-05-09T05:03:29.893Z,37.00
2024-05-09T05:03:59.843Z,39.00
2024-05-09T05:04:59.821Z,36.00
2024-05-09T05:05:29.750Z,36.00
2024-05-09T05:05:59.900Z,38.00
2024-05-09T05:07:59.800Z,42.00
2024-05-09T05:08:59.679Z,42.00
2024-05-09T05:09:29.668Z,42.00
2024-05-09T05:10:35.569Z,42.00
2024-05-09T05:10:59.781Z,43.00
2024-05-09T05:12:29.773Z,45.00
2024-05-09T05:13:29.628Z,45.00
2024-05-09T05:14:59.605Z,50.00
2024-05-09T05:15:29.648Z,51.00
2024-05-09T05:15:59.595Z,51.00
2024-05-09T05:16:29.587Z,53.00
2024-05-09T05:17:59.749Z,54.00
2024-05-09T05:18:59.723Z,54.00
2024-05-09T05:20:33.582Z,54.00
2024-05-09T05:20:59.618Z,55.00
2024-05-09T05:21:59.545Z,57.00
2024-05-09T05:22:29.524Z,56.00
2024-05-09T05:23:29.582Z,55.00
2024-05-09T05:24:29.500Z,58.00
2024-05-09T05:25:59.558Z,60.00
2024-05-09T05:26:29.498Z,60.00
2024-05-09T05:27:29.470Z,61.00
2024-05-09T05:27:59.456Z,61.00
2024-05-09T05:28:59.480Z,62.00
2024-05-09T05:29:59.440Z,64.00
2024-05-09T05:31:29.479Z,64.00
2024-05-09T05:31:59.564Z,65.00
2024-05-09T05:32:59.520Z,66.00
2024-05-09T05:33:29.588Z,66.00
2024-05-09T05:34:29.386Z,67.00
2024-05-09T05:35:29.530Z,68.00
2024-05-09T05:36:59.380Z,68.00
2024-05-09T05:37:29.363Z,69.00
2024-05-09T05:38:59.346Z,70.00
2024-05-09T05:39:59.335Z,71.00
2024-05-09T05:40:36.154Z,71.00
2024-05-09T05:41:59.327Z,72.00
2024-05-09T05:42:29.303Z,72.00
2024-05-09T05:43:29.309Z,73.00
2024-05-09T05:43:59.378Z,73.00
2024-05-09T05:44:29.338Z,75.00
2024-05-09T05:46:29.250Z,77.00
2024-05-09T05:47:29.331Z,77.00
2024-05-09T05:47:59.391Z,78.00
2024-05-09T05:48:29.367Z,77.00
2024-05-09T05:48:59.386Z,78.00
2024-05-09T05:49:59.226Z,79.00
2024-05-09T05:51:01.901Z,80.00
2024-05-09T05:51:29.215Z,80.00
2024-05-09T05:52:59.248Z,81.00
2024-05-09T05:53:29.206Z,81.00
2024-05-09T05:53:59.171Z,81.00
2024-05-09T05:55:29.163Z,82.00
2024-05-09T05:56:29.235Z,83.00
2024-05-09T05:57:59.131Z,83.00
2024-05-09T05:58:59.162Z,86.00
2024-05-09T05:59:29.131Z,86.00
2024-05-09T06:00:35.428Z,86.00
2024-05-09T06:00:59.105Z,86.00
2024-05-09T06:01:59.140Z,86.00
2024-05-09T06:03:29.093Z,86.00
2024-05-09T06:04:29.067Z,86.00
2024-05-09T06:04:59.113Z,87.00
2024-05-09T06:05:59.796Z,87.00
2024-05-09T06:06:29.030Z,88.00
2024-05-09T06:07:29.008Z,86.00
2024-05-09T06:08:59.058Z,87.00
2024-05-09T06:09:29.010Z,87.00
2024-05-09T06:10:37.575Z,87.00
2024-05-09T06:10:59.123Z,87.00
2024-05-09T06:11:59.033Z,87.00
2024-05-09T06:12:58.959Z,87.00
2024-05-09T06:14:29.060Z,89.00
2024-05-09T06:14:58.936Z,90.00
2024-05-09T06:15:58.925Z,88.00
2024-05-09T06:16:28.916Z,89.00
2024-05-09T06:17:29.104Z,91.00
2024-05-09T06:19:29.047Z,91.00
2024-05-09T06:19:58.929Z,91.00
2024-05-09T06:20:35.636Z,91.00
2024-05-09T06:21:28.915Z,93.00
2024-05-09T06:21:58.856Z,92.00
2024-05-09T06:22:58.891Z,92.00
2024-05-09T06:24:58.818Z,94.00
2024-05-09T06:25:28.814Z,95.00
2024-05-09T06:25:58.847Z,95.00
2024-05-09T06:26:28.885Z,95.00
2024-05-09T06:26:58.800Z,95.00
2024-05-09T06:27:28.792Z,95.00
2024-05-09T06:28:28.785Z,95.00
2024-05-09T06:30:37.355Z,96.00
2024-05-09T06:31:28.741Z,96.00
2024-05-09T06:32:00.217Z,96.00
2024-05-09T06:32:28.878Z,98.00
2024-05-09T06:32:58.980Z,97.00
2024-05-09T06:33:58.822Z,98.00
2024-05-09T06:35:58.693Z,98.00
2024-05-09T06:36:58.693Z,99.00
2024-05-09T06:37:28.680Z,99.00
2024-05-09T06:37:58.717Z,99.00
2024-05-09T06:38:28.696Z,99.00
2024-05-09T06:40:36.589Z,100.00
2024-05-09T06:41:28.740Z,100.00
2024-05-09T06:42:28.622Z,101.00
2024-05-09T06:42:58.630Z,102.00
2024-05-09T06:43:58.675Z,103.00
2024-05-09T06:45:28.585Z,105.00
2024-05-09T06:45:58.593Z,105.00
2024-05-09T06:47:00.076Z,105.00
2024-05-09T06:47:58.715Z,106.00
2024-05-09T06:48:28.744Z,107.00
2024-05-09T06:49:28.631Z,107.00
2024-05-09T06:50:58.646Z,109.00
2024-05-09T06:51:28.528Z,109.00
2024-05-09T06:52:28.503Z,109.00
2024-05-09T06:53:58.515Z,110.00
2024-05-09T06:54:28.488Z,112.00
2024-05-09T06:54:58.481Z,111.00
2024-05-09T06:56:28.530Z,112.00
2024-05-09T06:56:58.483Z,113.00
2024-05-09T06:57:58.480Z,115.00
2024-05-09T06:59:28.758Z,114.00
2024-05-09T06:59:58.437Z,115.00
2024-05-09T07:00:35.748Z,115.00
2024-05-09T07:01:28.457Z,116.00
2024-05-09T07:01:58.456Z,116.00
2024-05-09T07:02:28.506Z,117.00
2024-05-09T07:03:28.532Z,117.00
2024-05-09T07:05:58.397Z,118.00
2024-05-09T07:06:28.399Z,120.00
2024-05-09T07:06:58.356Z,120.00
2024-05-09T07:07:28.357Z,120.00
2024-05-09T07:07:58.368Z,120.00
2024-05-09T07:08:58.337Z,120.00
2024-05-09T07:11:28.360Z,121.00
2024-05-09T07:11:58.356Z,121.00
2024-05-09T07:12:28.373Z,122.00
2024-05-09T07:13:28.276Z,123.00
2024-05-09T07:13:58.318Z,124.00
2024-05-09T07:14:28.338Z,122.00
2024-05-09T07:15:28.267Z,124.00
2024-05-09T07:16:58.384Z,124.00
2024-05-09T07:17:28.397Z,125.00
2024-05-09T07:17:58.358Z,126.00
2024-05-09T07:18:58.368Z,123.00
2024-05-09T07:19:28.267Z,126.00
2024-05-09T07:20:58.254Z,126.00
2024-05-09T07:22:28.179Z,129.00
2024-05-09T07:23:28.316Z,130.00
2024-05-09T07:23:58.162Z,130.00
2024-05-09T07:24:28.152Z,131.00
2024-05-09T07:25:58.211Z,132.00
2024-05-09T07:26:28.185Z,133.00
2024-05-09T07:26:58.166Z,134.00
2024-05-09T07:27:58.155Z,134.00
2024-05-09T07:28:58.162Z,134.00
2024-05-09T07:29:58.094Z,135.00
2024-05-09T07:30:33.307Z,134.00
2024-05-09T07:32:28.269Z,136.00
2024-05-09T07:33:28.276Z,138.00
2024-05-09T07:33:58.169Z,137.00
2024-05-09T07:34:28.098Z,138.00
2024-05-09T07:35:58.036Z,139.00
2024-05-09T07:36:28.029Z,141.00
2024-05-09T07:37:58.107Z,141.00
2024-05-09T07:38:57.995Z,140.00
2024-05-09T07:39:57.992Z,143.00
2024-05-09T07:40:34.795Z,143.00
2024-05-09T07:41:28.031Z,145.00
2024-05-09T07:43:27.980Z,146.00
2024-05-09T07:43:58.072Z,146.00
2024-05-09T07:44:28.010Z,147.00
2024-05-09T07:45:44.985Z,149.00
2024-05-09T07:46:03.529Z,152.00
2024-05-09T07:47:47.630Z,152.00
2024-05-09T07:51:31.274Z,152.00
2024-05-09T07:53:35.683Z,154.00
2024-05-09T07:53:51.100Z,155.00
2024-05-09T07:54:57.873Z,158.00
2024-05-09T07:55:57.918Z,160.00
2024-05-09T07:56:28.008Z,160.00
2024-05-09T07:56:57.889Z,161.00
2024-05-09T07:58:27.973Z,164.00
2024-05-09T07:59:27.665Z,163.00
2024-05-09T08:00:31.465Z,162.00
2024-05-09T08:01:27.848Z,163.00
2024-05-09T08:02:57.696Z,164.00
2024-05-09T08:03:27.755Z,164.00
2024-05-09T08:03:57.827Z,166.00
2024-05-09T08:04:57.747Z,168.00
2024-05-09T08:05:57.594Z,169.00
2024-05-09T08:06:57.634Z,169.00
2024-05-09T08:08:27.562Z,173.00
2024-05-09T08:09:00.647Z,175.00
2024-05-09T08:09:27.588Z,176.00
2024-05-09T08:10:29.157Z,176.00
2024-05-09T08:11:27.595Z,177.00
2024-05-09T08:12:27.549Z,178.00
2024-05-09T08:13:57.500Z,183.00
2024-05-09T08:14:57.509Z,183.00
2024-05-09T08:15:27.587Z,183.00
2024-05-09T08:15:57.835Z,185.00
2024-05-09T08:16:57.539Z,185.00
2024-05-09T08:17:57.555Z,189.00
2024-05-09T08:19:27.515Z,192.00
2024-05-09T08:20:31.297Z,194.00
2024-05-09T08:20:57.441Z,194.00
2024-05-09T08:21:27.444Z,194.00
2024-05-09T08:22:27.411Z,195.00
2024-05-09T08:24:27.431Z,197.00
2024-05-09T08:24:57.415Z,198.00
2024-05-09T08:25:57.373Z,199.00
2024-05-09T08:26:27.367Z,200.00
2024-05-09T08:26:57.358Z,203.00
2024-05-09T08:28:57.342Z,209.00
2024-05-09T08:29:57.362Z,209.00
2024-05-09T08:30:33.639Z,211.00
2024-05-09T08:31:27.437Z,211.00
2024-05-09T08:31:57.392Z,212.00
2024-05-09T08:33:27.420Z,215.00
2024-05-09T08:34:27.361Z,216.00
2024-05-09T08:35:27.259Z,219.00
2024-05-09T08:35:57.256Z,220.00
2024-05-09T08:36:59.682Z,220.00
2024-05-09T08:37:31.087Z,222.00
2024-05-09T08:38:57.226Z,223.00
2024-05-09T08:39:57.229Z,223.00
2024-05-09T08:40:57.245Z,225.00
2024-05-09T08:41:27.191Z,226.00
2024-05-09T08:43:27.286Z,230.00
2024-05-09T08:43:57.171Z,231.00
2024-05-09T08:44:27.178Z,233.00
2024-05-09T08:45:27.283Z,237.00
2024-05-09T08:47:27.255Z,240.00
2024-05-09T08:47:57.226Z,242.00
2024-05-09T08:48:57.340Z,242.00
2024-05-09T08:49:27.165Z,243.00
2024-05-09T08:49:57.185Z,243.00
2024-05-09T08:50:57.093Z,244.00
2024-05-09T08:52:57.075Z,245.00
2024-05-09T08:53:27.114Z,246.00
2024-05-09T08:54:27.138Z,247.00
2024-05-09T08:54:57.093Z,248.00
2024-05-09T08:55:27.038Z,247.00
2024-05-09T08:56:27.040Z,248.00
2024-05-09T08:58:27.049Z,253.00
2024-05-09T08:58:57.003Z,254.00
2024-05-09T08:59:56.998Z,256.00
2024-05-09T09:00:57.092Z,259.00
2024-05-09T09:01:27.042Z,259.00
2024-05-09T09:01:57.043Z,261.00
2024-05-09T09:04:27.073Z,267.00
2024-05-09T09:04:57.048Z,267.00
2024-05-09T09:05:27.248Z,268.00
2024-05-09T09:06:27.023Z,271.00
2024-05-09T09:06:58.270Z,271.00
2024-05-09T09:07:26.961Z,273.00
2024-05-09T09:08:26.890Z,272.00
2024-05-09T09:09:56.936Z,275.00
2024-05-09T09:10:31.991Z,278.00
2024-05-09T09:10:56.882Z,278.00
2024-05-09T09:12:56.874Z,283.00
2024-05-09T09:13:26.835Z,283.00
2024-05-09T09:14:56.820Z,288.00
2024-05-09T09:15:26.974Z,288.00
2024-05-09T09:16:26.876Z,290.00
2024-05-09T09:16:56.808Z,290.00
2024-05-09T09:18:27.161Z,293.00
2024-05-09T09:18:56.902Z,294.00
2024-05-09T09:20:34.118Z,297.00
2024-05-09T09:20:56.754Z,299.00
2024-05-09T09:21:56.794Z,300.00
2024-05-09T09:22:26.740Z,302.00
2024-05-09T09:23:56.720Z,304.00
2024-05-09T09:24:26.798Z,305.00
2024-05-09T09:25:56.781Z,307.00
2024-05-09T09:26:26.694Z,308.00
2024-05-09T09:27:26.742Z,315.00
2024-05-09T09:27:56.705Z,315.00
2024-05-09T09:28:56.692Z,316.00
2024-05-09T09:30:35.274Z,320.00
2024-05-09T09:30:56.674Z,320.00
2024-05-09T09:31:26.686Z,319.00
2024-05-09T09:31:56.638Z,321.00
2024-05-09T09:32:56.729Z,321.00
2024-05-09T09:33:56.876Z,324.00
2024-05-09T09:35:26.588Z,325.00
2024-05-09T09:35:56.588Z,327.00
2024-05-09T09:36:26.581Z,332.00
2024-05-09T09:36:56.629Z,336.00
2024-05-09T09:38:26.548Z,343.00
2024-05-09T09:40:32.118Z,338.00
2024-05-09T09:40:56.659Z,338.00
2024-05-09T09:41:26.544Z,338.00
2024-05-09T09:41:56.516Z,340.00
2024-05-09T09:43:26.530Z,338.00
2024-05-09T09:43:56.504Z,337.00
2024-05-09T09:45:56.530Z,340.00
2024-05-09T09:46:26.659Z,344.00
2024-05-09T09:46:56.481Z,342.00
2024-05-09T09:48:26.564Z,340.00
2024-05-09T09:48:56.519Z,343.00
2024-05-09T09:50:33.499Z,343.00
2024-05-09T09:51:26.415Z,349.00
2024-05-09T09:51:56.540Z,352.00
2024-05-09T09:53:26.390Z,343.00
2024-05-09T09:54:56.431Z,359.00
2024-05-09T09:55:26.436Z,360.00
2024-05-09T09:55:56.356Z,361.00
2024-05-09T09:56:56.362Z,367.00
2024-05-09T09:57:26.358Z,370.00
2024-05-09T09:59:56.324Z,390.00
2024-05-09T10:00:30.703Z,394.00
2024-05-09T10:01:26.390Z,398.00
2024-05-09T10:01:56.459Z,402.00
2024-05-09T10:02:26.369Z,403.00
2024-05-09T10:03:56.392Z,407.00
2024-05-09T10:05:26.588Z,412.00
2024-05-09T10:05:56.310Z,413.00
2024-05-09T10:06:56.251Z,416.00
2024-05-09T10:07:56.232Z,417.00
2024-05-09T10:09:26.208Z,417.00
2024-05-09T10:10:32.139Z,409.00
2024-05-09T10:11:26.211Z,409.00
2024-05-09T10:12:00.203Z,406.00
2024-05-09T10:12:26.235Z,407.00
2024-05-09T10:13:26.334Z,409.00
2024-05-09T10:14:56.145Z,415.00
2024-05-09T10:15:56.189Z,417.00
2024-05-09T10:16:56.127Z,355.00
2024-05-09T10:17:56.242Z,240.00
2024-05-09T10:18:56.288Z,333.00
2024-05-09T10:19:26.221Z,253.00
2024-05-09T10:20:30.855Z,219.00
2024-05-09T10:21:26.075Z,327.00
2024-05-09T10:22:26.166Z,263.00
2024-05-09T10:23:26.072Z,209.00
2024-05-09T10:23:56.051Z,177.00
2024-05-09T10:24:26.043Z,168.00
2024-05-09T10:24:56.094Z,166.00
2024-05-09T10:25:56.043Z,163.00
2024-05-09T10:27:56.072Z,157.00
2024-05-09T10:28:56.050Z,165.00
2024-05-09T10:29:25.988Z,164.00
2024-05-09T10:30:33.685Z,160.00
2024-05-09T10:30:55.994Z,168.00
2024-05-09T10:31:26.022Z,90.00
2024-05-09T10:33:26.028Z,275.00
2024-05-09T10:34:26.265Z,205.00
2024-05-09T10:34:56.016Z,208.00
2024-05-09T10:35:55.918Z,226.00
2024-05-09T10:36:25.913Z,229.00
2024-05-09T10:36:56.113Z,215.00
2024-05-09T10:39:55.919Z,201.00
2024-05-09T10:40:30.966Z,192.00
2024-05-09T10:40:55.868Z,186.00
2024-05-09T10:41:25.849Z,181.00
2024-05-09T10:42:25.844Z,166.00
2024-05-09T10:42:55.857Z,161.00
2024-05-09T10:45:25.810Z,155.00
2024-05-09T10:45:55.831Z,154.00
2024-05-09T10:46:25.811Z,145.00
2024-05-09T10:46:55.848Z,141.00
2024-05-09T10:48:25.844Z,129.00
2024-05-09T10:48:55.910Z,128.00
2024-05-09T10:50:55.746Z,116.00
2024-05-09T10:51:25.739Z,116.00
2024-05-09T10:52:25.760Z,117.00
2024-05-09T10:52:55.744Z,118.00
2024-05-09T10:53:55.709Z,116.00
2024-05-09T10:54:25.712Z,114.00
2024-05-09T10:56:55.683Z,106.00
2024-05-09T10:57:25.670Z,108.00
2024-05-09T10:58:25.661Z,109.00
2024-05-09T10:58:55.662Z,111.00
2024-05-09T10:59:25.662Z,115.00
2024-05-09T10:59:55.652Z,119.00
2024-05-09T11:02:25.822Z,54.00
2024-05-09T11:02:55.656Z,261.00
2024-05-09T11:03:55.731Z,349.00
2024-05-09T11:04:25.690Z,404.00
2024-05-09T11:04:55.800Z,340.00
2024-05-09T11:05:25.654Z,187.00
2024-05-09T11:08:25.572Z,655.00
2024-05-09T11:08:55.548Z,664.00
2024-05-09T11:09:25.546Z,674.00
2024-05-09T11:09:55.580Z,683.00
2024-05-09T11:10:55.581Z,631.00
2024-05-09T11:11:25.547Z,484.00
2024-05-09T11:13:55.504Z,415.00
2024-05-09T11:14:25.501Z,476.00
2024-05-09T11:15:25.477Z,344.00
2024-05-09T11:15:55.542Z,271.00
2024-05-09T11:16:25.499Z,209.00
2024-05-09T11:16:55.458Z,383.00
2024-05-09T11:19:55.456Z,205.00
2024-05-09T11:20:29.575Z,195.00
2024-05-09T11:20:55.410Z,186.00
2024-05-09T11:21:55.488Z,170.00
2024-05-09T11:22:25.436Z,164.00
2024-05-09T11:23:25.397Z,154.00
2024-05-09T11:25:25.423Z,151.00
2024-05-09T11:25:55.358Z,152.00
2024-05-09T11:26:25.636Z,115.00
2024-05-09T11:27:55.379Z,264.00
2024-05-09T11:28:55.330Z,138.00
2024-05-09T11:29:25.311Z,130.00
2024-05-09T11:30:55.341Z,129.00
2024-05-09T11:31:55.326Z,330.00
2024-05-09T11:32:25.478Z,303.00
2024-05-09T11:33:25.347Z,191.00
2024-05-09T11:35:25.254Z,158.00
2024-05-09T11:36:25.240Z,248.00
2024-05-09T11:36:55.275Z,182.00
2024-05-09T11:37:25.310Z,149.00
2024-05-09T11:37:55.225Z,156.00
2024-05-09T11:38:55.215Z,266.00
2024-05-09T11:40:55.225Z,200.00
2024-05-09T11:41:55.178Z,206.00
2024-05-09T11:42:25.189Z,211.00
2024-05-09T11:43:25.204Z,114.00
2024-05-09T11:43:55.151Z,395.00
2024-05-09T11:45:25.142Z,422.00
2024-05-09T11:46:25.182Z,411.00
2024-05-09T11:47:25.203Z,446.00
2024-05-09T11:47:55.318Z,435.00
2024-05-09T11:48:25.512Z,317.00
2024-05-09T11:48:55.246Z,246.00
2024-05-09T11:50:29.984Z,223.00
2024-05-09T11:50:55.458Z,210.00
2024-05-09T11:51:55.154Z,195.00
2024-05-09T11:53:25.063Z,184.00
2024-05-09T11:53:55.119Z,183.00
2024-05-09T11:54:25.045Z,181.00
2024-05-09T11:55:55.052Z,174.00
2024-05-09T11:56:25.013Z,172.00